sensor_id;sensor_type;location;lat;lon;timestamp;P1;durP1;ratioP1;P2;durP2;ratioP2
66886;SDS011;53798;51.680;5.976;2022-12-07T00:01:40;29.52;;;19.63;;
66886;SDS011;53798;51.680;5.976;2022-12-07T00:04:14;30.52;;;20.02;;
66886;SDS011;53798;51.680;5.976;2022-12-07T00:06:44;31.55;;;19.95;;
66886;SDS011;53798;51.680;5.976;2022-12-07T00:09:16;29.85;;;20.17;;
66886;SDS011;53798;51.680;5.976;2022-12-07T00:11:44;34.30;;;20.20;;
66886;SDS011;53798;51.680;5.976;2022-12-07T00:14:17;27.60;;;19.83;;
66886;SDS011;53798;51.680;5.976;2022-12-07T00:16:46;32.70;;;20.02;;
66886;SDS011;53798;51.680;5.976;2022-12-07T00:19:17;32.47;;;19.38;;
66886;SDS011;53798;51.680;5.976;2022-12-07T00:21:45;28.40;;;18.75;;
66886;SDS011;53798;51.680;5.976;2022-12-07T00:24:12;29.08;;;19.33;;
66886;SDS011;53798;51.680;5.976;2022-12-07T00:26:40;27.65;;;19.02;;
66886;SDS011;53798;51.680;5.976;2022-12-07T00:29:16;31.15;;;19.15;;
66886;SDS011;53798;51.680;5.976;2022-12-07T00:31:48;36.85;;;19.23;;
66886;SDS011;53798;51.680;5.976;2022-12-07T00:34:19;27.35;;;18.13;;
66886;SDS011;53798;51.680;5.976;2022-12-07T00:36:48;27.83;;;17.73;;
66886;SDS011;53798;51.680;5.976;2022-12-07T00:39:16;31.30;;;17.33;;
66886;SDS011;53798;51.680;5.976;2022-12-07T00:41:43;27.65;;;18.27;;
66886;SDS011;53798;51.680;5.976;2022-12-07T00:44:10;28.67;;;18.80;;
66886;SDS011;53798;51.680;5.976;2022-12-07T00:46:38;32.72;;;19.45;;
66886;SDS011;53798;51.680;5.976;2022-12-07T00:49:05;30.63;;;20.10;;
66886;SDS011;53798;51.680;5.976;2022-12-07T00:51:32;29.88;;;18.85;;
66886;SDS011;53798;51.680;5.976;2022-12-07T00:53:59;30.55;;;18.70;;
66886;SDS011;53798;51.680;5.976;2022-12-07T00:56:27;30.73;;;19.48;;
66886;SDS011;53798;51.680;5.976;2022-12-07T00:58:57;31.52;;;19.30;;
66886;SDS011;53798;51.680;5.976;2022-12-07T01:01:28;35.53;;;21.38;;
66886;SDS011;53798;51.680;5.976;2022-12-07T01:04:00;30.27;;;20.20;;
66886;SDS011;53798;51.680;5.976;2022-12-07T01:06:28;30.63;;;20.00;;
66886;SDS011;53798;51.680;5.976;2022-12-07T01:08:59;31.50;;;19.83;;
66886;SDS011;53798;51.680;5.976;2022-12-07T01:11:28;30.30;;;20.27;;
66886;SDS011;53798;51.680;5.976;2022-12-07T01:13:57;30.05;;;20.08;;
66886;SDS011;53798;51.680;5.976;2022-12-07T01:16:28;34.58;;;20.77;;
66886;SDS011;53798;51.680;5.976;2022-12-07T01:18:58;36.97;;;21.25;;
66886;SDS011;53798;51.680;5.976;2022-12-07T01:21:28;38.65;;;20.70;;
66886;SDS011;53798;51.680;5.976;2022-12-07T01:24:05;33.35;;;20.83;;
66886;SDS011;53798;51.680;5.976;2022-12-07T01:26:37;40.25;;;21.80;;
66886;SDS011;53798;51.680;5.976;2022-12-07T01:29:06;38.47;;;22.38;;
66886;SDS011;53798;51.680;5.976;2022-12-07T01:31:33;37.00;;;21.40;;
66886;SDS011;53798;51.680;5.976;2022-12-07T01:34:01;38.88;;;21.77;;
66886;SDS011;53798;51.680;5.976;2022-12-07T01:36:29;37.00;;;21.25;;
66886;SDS011;53798;51.680;5.976;2022-12-07T01:39:00;35.85;;;21.00;;
66886;SDS011;53798;51.680;5.976;2022-12-07T01:41:33;38.28;;;21.73;;
66886;SDS011;53798;51.680;5.976;2022-12-07T01:46:48;39.40;;;22.00;;
66886;SDS011;53798;51.680;5.976;2022-12-07T01:52:14;36.22;;;22.05;;
66886;SDS011;53798;51.680;5.976;2022-12-07T01:54:48;40.30;;;22.00;;
66886;SDS011;53798;51.680;5.976;2022-12-07T01:57:24;43.67;;;22.02;;
66886;SDS011;53798;51.680;5.976;2022-12-07T01:59:53;38.70;;;22.10;;
66886;SDS011;53798;51.680;5.976;2022-12-07T02:02:26;42.92;;;24.08;;
66886;SDS011;53798;51.680;5.976;2022-12-07T02:05:01;37.78;;;22.40;;
66886;SDS011;53798;51.680;5.976;2022-12-07T02:07:31;40.35;;;22.58;;
66886;SDS011;53798;51.680;5.976;2022-12-07T02:12:41;43.38;;;23.92;;
66886;SDS011;53798;51.680;5.976;2022-12-07T02:15:13;37.95;;;21.83;;
66886;SDS011;53798;51.680;5.976;2022-12-07T02:20:39;44.28;;;22.90;;
66886;SDS011;53798;51.680;5.976;2022-12-07T02:26:23;50.75;;;24.33;;
66886;SDS011;53798;51.680;5.976;2022-12-07T02:38:45;50.28;;;25.45;;
66886;SDS011;53798;51.680;5.976;2022-12-07T02:41:26;51.60;;;27.13;;
66886;SDS011;53798;51.680;5.976;2022-12-07T02:44:01;54.13;;;26.35;;
66886;SDS011;53798;51.680;5.976;2022-12-07T02:46:40;48.70;;;25.10;;
66886;SDS011;53798;51.680;5.976;2022-12-07T02:49:15;48.55;;;23.85;;
66886;SDS011;53798;51.680;5.976;2022-12-07T02:51:44;54.63;;;26.23;;
66886;SDS011;53798;51.680;5.976;2022-12-07T02:54:14;49.08;;;25.25;;
66886;SDS011;53798;51.680;5.976;2022-12-07T02:59:29;56.33;;;26.52;;
66886;SDS011;53798;51.680;5.976;2022-12-07T03:08:44;45.25;;;23.65;;
66886;SDS011;53798;51.680;5.976;2022-12-07T03:11:49;47.95;;;23.58;;
66886;SDS011;53798;51.680;5.976;2022-12-07T03:14:30;41.35;;;23.40;;
66886;SDS011;53798;51.680;5.976;2022-12-07T03:17:12;42.45;;;22.98;;
66886;SDS011;53798;51.680;5.976;2022-12-07T03:19:46;42.25;;;22.85;;
66886;SDS011;53798;51.680;5.976;2022-12-07T03:22:17;50.83;;;24.65;;
66886;SDS011;53798;51.680;5.976;2022-12-07T03:24:56;53.78;;;25.02;;
66886;SDS011;53798;51.680;5.976;2022-12-07T03:30:05;46.88;;;23.70;;
66886;SDS011;53798;51.680;5.976;2022-12-07T03:32:41;43.25;;;21.20;;
66886;SDS011;53798;51.680;5.976;2022-12-07T03:38:15;41.58;;;21.10;;
66886;SDS011;53798;51.680;5.976;2022-12-07T03:41:02;42.00;;;21.83;;
66886;SDS011;53798;51.680;5.976;2022-12-07T03:43:38;44.97;;;21.33;;
66886;SDS011;53798;51.680;5.976;2022-12-07T03:46:29;46.70;;;22.33;;
66886;SDS011;53798;51.680;5.976;2022-12-07T03:52:02;43.50;;;21.98;;
66886;SDS011;53798;51.680;5.976;2022-12-07T03:54:48;38.88;;;21.23;;
66886;SDS011;53798;51.680;5.976;2022-12-07T03:57:41;38.67;;;21.13;;
66886;SDS011;53798;51.680;5.976;2022-12-07T04:00:14;39.47;;;21.10;;
66886;SDS011;53798;51.680;5.976;2022-12-07T04:02:42;39.55;;;19.65;;
66886;SDS011;53798;51.680;5.976;2022-12-07T04:05:10;37.75;;;19.75;;
66886;SDS011;53798;51.680;5.976;2022-12-07T04:07:38;37.60;;;20.48;;
66886;SDS011;53798;51.680;5.976;2022-12-07T04:10:06;38.15;;;20.25;;
66886;SDS011;53798;51.680;5.976;2022-12-07T04:12:34;41.65;;;20.70;;
66886;SDS011;53798;51.680;5.976;2022-12-07T04:15:01;37.38;;;21.38;;
66886;SDS011;53798;51.680;5.976;2022-12-07T04:17:28;34.50;;;19.77;;
66886;SDS011;53798;51.680;5.976;2022-12-07T04:19:56;38.15;;;19.27;;
66886;SDS011;53798;51.680;5.976;2022-12-07T04:22:25;33.28;;;18.48;;
66886;SDS011;53798;51.680;5.976;2022-12-07T04:24:52;32.75;;;18.85;;
66886;SDS011;53798;51.680;5.976;2022-12-07T04:27:19;34.55;;;18.70;;
66886;SDS011;53798;51.680;5.976;2022-12-07T04:29:46;34.33;;;18.35;;
66886;SDS011;53798;51.680;5.976;2022-12-07T04:32:13;32.85;;;17.42;;
66886;SDS011;53798;51.680;5.976;2022-12-07T04:34:41;34.38;;;17.23;;
66886;SDS011;53798;51.680;5.976;2022-12-07T04:37:08;30.45;;;16.45;;
66886;SDS011;53798;51.680;5.976;2022-12-07T04:39:35;30.92;;;16.42;;
66886;SDS011;53798;51.680;5.976;2022-12-07T04:42:02;34.35;;;15.90;;
66886;SDS011;53798;51.680;5.976;2022-12-07T04:44:29;28.17;;;14.13;;
66886;SDS011;53798;51.680;5.976;2022-12-07T04:46:57;27.27;;;14.63;;
66886;SDS011;53798;51.680;5.976;2022-12-07T04:49:24;30.13;;;14.05;;
66886;SDS011;53798;51.680;5.976;2022-12-07T04:51:51;27.55;;;14.75;;
66886;SDS011;53798;51.680;5.976;2022-12-07T04:54:19;27.90;;;14.10;;
66886;SDS011;53798;51.680;5.976;2022-12-07T04:56:46;27.15;;;13.82;;
66886;SDS011;53798;51.680;5.976;2022-12-07T04:59:15;29.42;;;14.27;;
66886;SDS011;53798;51.680;5.976;2022-12-07T05:01:43;28.83;;;14.23;;
66886;SDS011;53798;51.680;5.976;2022-12-07T05:04:10;24.77;;;13.80;;
66886;SDS011;53798;51.680;5.976;2022-12-07T05:06:38;24.42;;;13.20;;
66886;SDS011;53798;51.680;5.976;2022-12-07T05:09:05;25.27;;;13.13;;
66886;SDS011;53798;51.680;5.976;2022-12-07T05:11:32;27.75;;;13.00;;
66886;SDS011;53798;51.680;5.976;2022-12-07T05:16:50;26.35;;;13.10;;
66886;SDS011;53798;51.680;5.976;2022-12-07T05:19:18;25.95;;;12.50;;
66886;SDS011;53798;51.680;5.976;2022-12-07T05:21:46;23.20;;;12.45;;
66886;SDS011;53798;51.680;5.976;2022-12-07T05:24:14;25.75;;;12.32;;
66886;SDS011;53798;51.680;5.976;2022-12-07T05:26:44;22.98;;;11.88;;
66886;SDS011;53798;51.680;5.976;2022-12-07T05:29:13;22.20;;;11.20;;
66886;SDS011;53798;51.680;5.976;2022-12-07T05:31:44;20.15;;;10.93;;
66886;SDS011;53798;51.680;5.976;2022-12-07T05:34:11;26.17;;;11.60;;
66886;SDS011;53798;51.680;5.976;2022-12-07T05:36:40;23.10;;;11.18;;
66886;SDS011;53798;51.680;5.976;2022-12-07T05:39:07;25.13;;;11.55;;
66886;SDS011;53798;51.680;5.976;2022-12-07T05:41:36;20.67;;;11.88;;
66886;SDS011;53798;51.680;5.976;2022-12-07T05:44:22;20.05;;;11.27;;
66886;SDS011;53798;51.680;5.976;2022-12-07T05:46:49;23.17;;;11.38;;
66886;SDS011;53798;51.680;5.976;2022-12-07T05:49:16;26.65;;;11.80;;
66886;SDS011;53798;51.680;5.976;2022-12-07T05:51:44;20.92;;;11.30;;
66886;SDS011;53798;51.680;5.976;2022-12-07T05:54:11;21.80;;;11.73;;
66886;SDS011;53798;51.680;5.976;2022-12-07T05:56:38;21.95;;;10.85;;
66886;SDS011;53798;51.680;5.976;2022-12-07T05:59:05;19.73;;;10.75;;
66886;SDS011;53798;51.680;5.976;2022-12-07T06:04:27;18.98;;;10.60;;
66886;SDS011;53798;51.680;5.976;2022-12-07T06:06:58;17.70;;;10.05;;
66886;SDS011;53798;51.680;5.976;2022-12-07T06:09:25;21.48;;;10.27;;
66886;SDS011;53798;51.680;5.976;2022-12-07T06:11:54;15.20;;;9.15;;
66886;SDS011;53798;51.680;5.976;2022-12-07T06:14:42;20.73;;;9.88;;
66886;SDS011;53798;51.680;5.976;2022-12-07T06:17:11;20.98;;;10.20;;
66886;SDS011;53798;51.680;5.976;2022-12-07T06:19:40;23.67;;;9.60;;
66886;SDS011;53798;51.680;5.976;2022-12-07T06:22:08;20.33;;;9.35;;
66886;SDS011;53798;51.680;5.976;2022-12-07T06:24:39;21.42;;;8.93;;
66886;SDS011;53798;51.680;5.976;2022-12-07T06:27:07;20.08;;;9.15;;
66886;SDS011;53798;51.680;5.976;2022-12-07T06:29:34;16.80;;;8.75;;
66886;SDS011;53798;51.680;5.976;2022-12-07T06:32:02;21.70;;;8.73;;
66886;SDS011;53798;51.680;5.976;2022-12-07T06:34:30;17.80;;;9.07;;
66886;SDS011;53798;51.680;5.976;2022-12-07T06:36:57;16.15;;;9.15;;
66886;SDS011;53798;51.680;5.976;2022-12-07T06:39:26;15.90;;;9.02;;
66886;SDS011;53798;51.680;5.976;2022-12-07T06:41:55;21.52;;;9.73;;
66886;SDS011;53798;51.680;5.976;2022-12-07T06:44:23;19.77;;;9.77;;
66886;SDS011;53798;51.680;5.976;2022-12-07T06:46:52;23.20;;;10.00;;
66886;SDS011;53798;51.680;5.976;2022-12-07T06:49:40;21.33;;;10.05;;
66886;SDS011;53798;51.680;5.976;2022-12-07T06:52:07;20.10;;;10.32;;
66886;SDS011;53798;51.680;5.976;2022-12-07T06:54:34;23.58;;;10.23;;
66886;SDS011;53798;51.680;5.976;2022-12-07T06:57:01;17.30;;;10.30;;
66886;SDS011;53798;51.680;5.976;2022-12-07T06:59:28;22.25;;;10.95;;
66886;SDS011;53798;51.680;5.976;2022-12-07T07:01:55;24.83;;;11.13;;
66886;SDS011;53798;51.680;5.976;2022-12-07T07:04:22;19.33;;;10.80;;
66886;SDS011;53798;51.680;5.976;2022-12-07T07:06:50;24.02;;;10.85;;
66886;SDS011;53798;51.680;5.976;2022-12-07T07:09:25;22.33;;;11.18;;
66886;SDS011;53798;51.680;5.976;2022-12-07T07:11:54;26.02;;;11.55;;
66886;SDS011;53798;51.680;5.976;2022-12-07T07:14:21;19.08;;;10.90;;
66886;SDS011;53798;51.680;5.976;2022-12-07T07:16:48;28.73;;;11.20;;
66886;SDS011;53798;51.680;5.976;2022-12-07T07:19:16;24.42;;;11.43;;
66886;SDS011;53798;51.680;5.976;2022-12-07T07:21:43;28.10;;;10.68;;
66886;SDS011;53798;51.680;5.976;2022-12-07T07:24:10;21.63;;;11.45;;
66886;SDS011;53798;51.680;5.976;2022-12-07T07:26:37;22.40;;;11.73;;
66886;SDS011;53798;51.680;5.976;2022-12-07T07:29:04;23.77;;;11.48;;
66886;SDS011;53798;51.680;5.976;2022-12-07T07:31:30;24.17;;;12.80;;
66886;SDS011;53798;51.680;5.976;2022-12-07T07:33:59;28.65;;;12.55;;
66886;SDS011;53798;51.680;5.976;2022-12-07T07:36:26;28.05;;;15.85;;
66886;SDS011;53798;51.680;5.976;2022-12-07T07:38:53;26.58;;;12.55;;
66886;SDS011;53798;51.680;5.976;2022-12-07T07:41:20;22.02;;;11.18;;
66886;SDS011;53798;51.680;5.976;2022-12-07T07:43:47;18.00;;;10.98;;
66886;SDS011;53798;51.680;5.976;2022-12-07T07:46:15;19.48;;;11.13;;
66886;SDS011;53798;51.680;5.976;2022-12-07T07:48:42;21.27;;;11.43;;
66886;SDS011;53798;51.680;5.976;2022-12-07T07:51:09;26.52;;;11.02;;
66886;SDS011;53798;51.680;5.976;2022-12-07T07:53:36;20.23;;;10.20;;
66886;SDS011;53798;51.680;5.976;2022-12-07T07:56:04;19.40;;;9.88;;
66886;SDS011;53798;51.680;5.976;2022-12-07T07:58:31;20.42;;;10.77;;
66886;SDS011;53798;51.680;5.976;2022-12-07T08:01:05;21.75;;;11.43;;
66886;SDS011;53798;51.680;5.976;2022-12-07T08:03:34;20.80;;;11.00;;
66886;SDS011;53798;51.680;5.976;2022-12-07T08:06:02;25.35;;;10.40;;
66886;SDS011;53798;51.680;5.976;2022-12-07T08:08:30;21.45;;;9.63;;
66886;SDS011;53798;51.680;5.976;2022-12-07T08:10:57;20.10;;;10.23;;
66886;SDS011;53798;51.680;5.976;2022-12-07T08:13:27;19.85;;;9.40;;
66886;SDS011;53798;51.680;5.976;2022-12-07T08:15:57;19.85;;;9.75;;
66886;SDS011;53798;51.680;5.976;2022-12-07T08:18:24;19.27;;;8.82;;
66886;SDS011;53798;51.680;5.976;2022-12-07T08:20:52;20.00;;;9.20;;
66886;SDS011;53798;51.680;5.976;2022-12-07T08:23:26;21.38;;;8.57;;
66886;SDS011;53798;51.680;5.976;2022-12-07T08:26:06;19.38;;;8.15;;
66886;SDS011;53798;51.680;5.976;2022-12-07T08:28:36;18.17;;;9.02;;
66886;SDS011;53798;51.680;5.976;2022-12-07T08:31:08;15.70;;;8.35;;
66886;SDS011;53798;51.680;5.976;2022-12-07T08:33:40;14.70;;;7.95;;
66886;SDS011;53798;51.680;5.976;2022-12-07T08:36:08;25.38;;;8.75;;
66886;SDS011;53798;51.680;5.976;2022-12-07T08:38:38;15.73;;;8.40;;
66886;SDS011;53798;51.680;5.976;2022-12-07T08:41:22;16.77;;;8.40;;
66886;SDS011;53798;51.680;5.976;2022-12-07T08:43:50;19.58;;;8.65;;
66886;SDS011;53798;51.680;5.976;2022-12-07T08:46:21;18.58;;;8.38;;
66886;SDS011;53798;51.680;5.976;2022-12-07T08:51:39;21.40;;;8.13;;
66886;SDS011;53798;51.680;5.976;2022-12-07T08:54:14;17.13;;;8.80;;
66886;SDS011;53798;51.680;5.976;2022-12-07T08:56:44;18.65;;;8.43;;
66886;SDS011;53798;51.680;5.976;2022-12-07T08:59:19;19.55;;;8.90;;
66886;SDS011;53798;51.680;5.976;2022-12-07T09:01:47;18.98;;;8.85;;
66886;SDS011;53798;51.680;5.976;2022-12-07T09:04:15;14.32;;;8.18;;
66886;SDS011;53798;51.680;5.976;2022-12-07T09:06:42;14.20;;;7.70;;
66886;SDS011;53798;51.680;5.976;2022-12-07T09:09:10;16.77;;;7.95;;
66886;SDS011;53798;51.680;5.976;2022-12-07T09:11:39;15.48;;;8.10;;
66886;SDS011;53798;51.680;5.976;2022-12-07T09:14:08;21.17;;;8.73;;
66886;SDS011;53798;51.680;5.976;2022-12-07T09:16:35;16.33;;;8.48;;
66886;SDS011;53798;51.680;5.976;2022-12-07T09:19:03;18.25;;;8.35;;
66886;SDS011;53798;51.680;5.976;2022-12-07T09:21:30;16.20;;;8.02;;
66886;SDS011;53798;51.680;5.976;2022-12-07T09:24:03;16.17;;;7.63;;
66886;SDS011;53798;51.680;5.976;2022-12-07T09:26:31;13.77;;;8.25;;
66886;SDS011;53798;51.680;5.976;2022-12-07T09:28:58;19.65;;;8.32;;
66886;SDS011;53798;51.680;5.976;2022-12-07T09:31:25;17.00;;;8.10;;
66886;SDS011;53798;51.680;5.976;2022-12-07T09:33:56;14.95;;;7.75;;
66886;SDS011;53798;51.680;5.976;2022-12-07T09:36:26;17.77;;;7.57;;
66886;SDS011;53798;51.680;5.976;2022-12-07T09:38:55;16.00;;;8.02;;
66886;SDS011;53798;51.680;5.976;2022-12-07T09:41:22;14.55;;;7.68;;
66886;SDS011;53798;51.680;5.976;2022-12-07T09:43:53;11.90;;;7.40;;
66886;SDS011;53798;51.680;5.976;2022-12-07T09:46:35;13.30;;;7.70;;
66886;SDS011;53798;51.680;5.976;2022-12-07T09:49:17;14.00;;;6.68;;
66886;SDS011;53798;51.680;5.976;2022-12-07T09:51:47;13.70;;;7.57;;
66886;SDS011;53798;51.680;5.976;2022-12-07T09:54:30;13.38;;;7.00;;
66886;SDS011;53798;51.680;5.976;2022-12-07T09:56:58;18.65;;;6.75;;
66886;SDS011;53798;51.680;5.976;2022-12-07T09:59:25;15.18;;;6.60;;
66886;SDS011;53798;51.680;5.976;2022-12-07T10:01:56;14.55;;;9.05;;
66886;SDS011;53798;51.680;5.976;2022-12-07T10:05:06;15.75;;;7.38;;
66886;SDS011;53798;51.680;5.976;2022-12-07T10:07:44;11.02;;;6.32;;
66886;SDS011;53798;51.680;5.976;2022-12-07T10:10:14;35.03;;;21.50;;
66886;SDS011;53798;51.680;5.976;2022-12-07T10:15:56;15.05;;;6.20;;
66886;SDS011;53798;51.680;5.976;2022-12-07T10:23:35;12.73;;;5.85;;
66886;SDS011;53798;51.680;5.976;2022-12-07T10:29:22;9.07;;;4.90;;
66886;SDS011;53798;51.680;5.976;2022-12-07T10:37:46;10.95;;;5.10;;
66886;SDS011;53798;51.680;5.976;2022-12-07T10:43:02;7.90;;;4.68;;
66886;SDS011;53798;51.680;5.976;2022-12-07T11:00:55;8.80;;;3.58;;
66886;SDS011;53798;51.680;5.976;2022-12-07T11:09:00;5.43;;;2.15;;
66886;SDS011;53798;51.680;5.976;2022-12-07T11:12:39;5.70;;;2.22;;
66886;SDS011;53798;51.680;5.976;2022-12-07T11:15:28;7.22;;;2.22;;
66886;SDS011;53798;51.680;5.976;2022-12-07T11:18:27;5.18;;;2.00;;
66886;SDS011;53798;51.680;5.976;2022-12-07T11:21:15;9.00;;;2.60;;
66886;SDS011;53798;51.680;5.976;2022-12-07T11:24:01;5.68;;;1.70;;
66886;SDS011;53798;51.680;5.976;2022-12-07T11:26:49;8.80;;;2.25;;
66886;SDS011;53798;51.680;5.976;2022-12-07T11:32:15;5.60;;;1.83;;
66886;SDS011;53798;51.680;5.976;2022-12-07T11:37:44;8.43;;;2.20;;
66886;SDS011;53798;51.680;5.976;2022-12-07T11:45:44;10.48;;;2.38;;
66886;SDS011;53798;51.680;5.976;2022-12-07T11:48:41;6.78;;;1.80;;
66886;SDS011;53798;51.680;5.976;2022-12-07T11:51:18;8.68;;;2.17;;
66886;SDS011;53798;51.680;5.976;2022-12-07T11:53:50;5.80;;;1.88;;
66886;SDS011;53798;51.680;5.976;2022-12-07T11:56:24;7.43;;;1.80;;
66886;SDS011;53798;51.680;5.976;2022-12-07T11:59:01;8.00;;;2.00;;
66886;SDS011;53798;51.680;5.976;2022-12-07T12:01:47;4.50;;;1.50;;
66886;SDS011;53798;51.680;5.976;2022-12-07T12:04:50;6.85;;;1.58;;
66886;SDS011;53798;51.680;5.976;2022-12-07T12:07:25;8.98;;;1.88;;
66886;SDS011;53798;51.680;5.976;2022-12-07T12:16:19;8.48;;;1.75;;
66886;SDS011;53798;51.680;5.976;2022-12-07T12:22:41;10.48;;;2.30;;
66886;SDS011;53798;51.680;5.976;2022-12-07T12:25:27;6.18;;;1.85;;
66886;SDS011;53798;51.680;5.976;2022-12-07T12:28:20;8.27;;;2.28;;
66886;SDS011;53798;51.680;5.976;2022-12-07T12:31:15;8.25;;;1.85;;
66886;SDS011;53798;51.680;5.976;2022-12-07T12:34:00;6.68;;;1.92;;
66886;SDS011;53798;51.680;5.976;2022-12-07T12:55:16;3.60;;;1.70;;
66886;SDS011;53798;51.680;5.976;2022-12-07T12:58:21;6.25;;;1.83;;
66886;SDS011;53798;51.680;5.976;2022-12-07T13:00:48;15.90;;;2.22;;
66886;SDS011;53798;51.680;5.976;2022-12-07T13:04:21;14.07;;;2.45;;
66886;SDS011;53798;51.680;5.976;2022-12-07T13:06:55;7.93;;;2.75;;
66886;SDS011;53798;51.680;5.976;2022-12-07T13:09:23;13.88;;;2.40;;
66886;SDS011;53798;51.680;5.976;2022-12-07T13:11:56;8.27;;;2.55;;
66886;SDS011;53798;51.680;5.976;2022-12-07T13:20:04;6.15;;;2.63;;
66886;SDS011;53798;51.680;5.976;2022-12-07T13:22:43;8.70;;;2.25;;
66886;SDS011;53798;51.680;5.976;2022-12-07T13:25:31;9.07;;;2.30;;
66886;SDS011;53798;51.680;5.976;2022-12-07T13:28:18;8.00;;;2.20;;
66886;SDS011;53798;51.680;5.976;2022-12-07T13:33:32;10.38;;;3.47;;
66886;SDS011;53798;51.680;5.976;2022-12-07T13:36:02;8.93;;;2.30;;
66886;SDS011;53798;51.680;5.976;2022-12-07T13:38:32;9.57;;;2.15;;
66886;SDS011;53798;51.680;5.976;2022-12-07T13:41:05;6.20;;;2.40;;
66886;SDS011;53798;51.680;5.976;2022-12-07T13:43:44;10.27;;;2.55;;
66886;SDS011;53798;51.680;5.976;2022-12-07T13:46:16;8.57;;;2.00;;
66886;SDS011;53798;51.680;5.976;2022-12-07T13:48:54;6.20;;;1.60;;
66886;SDS011;53798;51.680;5.976;2022-12-07T13:51:23;5.65;;;1.83;;
66886;SDS011;53798;51.680;5.976;2022-12-07T13:53:55;7.20;;;1.20;;
66886;SDS011;53798;51.680;5.976;2022-12-07T13:56:36;7.53;;;1.70;;
66886;SDS011;53798;51.680;5.976;2022-12-07T13:59:05;7.53;;;1.80;;
66886;SDS011;53798;51.680;5.976;2022-12-07T14:01:44;4.47;;;1.80;;
66886;SDS011;53798;51.680;5.976;2022-12-07T14:10:03;10.23;;;1.83;;
66886;SDS011;53798;51.680;5.976;2022-12-07T14:12:34;5.55;;;1.65;;
66886;SDS011;53798;51.680;5.976;2022-12-07T14:15:03;5.97;;;1.33;;
66886;SDS011;53798;51.680;5.976;2022-12-07T14:17:32;4.65;;;1.42;;
66886;SDS011;53798;51.680;5.976;2022-12-07T14:20:00;3.83;;;1.05;;
66886;SDS011;53798;51.680;5.976;2022-12-07T14:22:34;4.93;;;1.52;;
66886;SDS011;53798;51.680;5.976;2022-12-07T14:27:50;4.55;;;0.90;;
66886;SDS011;53798;51.680;5.976;2022-12-07T14:30:28;5.75;;;1.50;;
66886;SDS011;53798;51.680;5.976;2022-12-07T14:32:59;7.57;;;1.55;;
66886;SDS011;53798;51.680;5.976;2022-12-07T14:35:31;3.33;;;0.95;;
66886;SDS011;53798;51.680;5.976;2022-12-07T14:37:59;2.60;;;1.20;;
66886;SDS011;53798;51.680;5.976;2022-12-07T14:40:27;3.83;;;1.02;;
66886;SDS011;53798;51.680;5.976;2022-12-07T14:42:57;7.63;;;1.10;;
66886;SDS011;53798;51.680;5.976;2022-12-07T14:45:30;9.20;;;1.48;;
66886;SDS011;53798;51.680;5.976;2022-12-07T14:47:58;10.05;;;1.55;;
66886;SDS011;53798;51.680;5.976;2022-12-07T14:50:46;4.82;;;1.20;;
66886;SDS011;53798;51.680;5.976;2022-12-07T14:53:40;5.30;;;1.55;;
66886;SDS011;53798;51.680;5.976;2022-12-07T14:56:19;3.92;;;1.27;;
66886;SDS011;53798;51.680;5.976;2022-12-07T14:58:46;6.25;;;1.70;;
66886;SDS011;53798;51.680;5.976;2022-12-07T15:01:14;8.95;;;1.60;;
66886;SDS011;53798;51.680;5.976;2022-12-07T15:03:41;6.72;;;2.10;;
66886;SDS011;53798;51.680;5.976;2022-12-07T15:06:15;5.30;;;1.70;;
66886;SDS011;53798;51.680;5.976;2022-12-07T15:08:45;4.65;;;1.25;;
66886;SDS011;53798;51.680;5.976;2022-12-07T15:11:16;5.18;;;1.13;;
66886;SDS011;53798;51.680;5.976;2022-12-07T15:13:44;5.15;;;1.00;;
66886;SDS011;53798;51.680;5.976;2022-12-07T15:16:30;4.53;;;1.30;;
66886;SDS011;53798;51.680;5.976;2022-12-07T15:19:18;5.75;;;1.17;;
66886;SDS011;53798;51.680;5.976;2022-12-07T15:21:54;5.68;;;1.23;;
66886;SDS011;53798;51.680;5.976;2022-12-07T15:24:22;2.97;;;1.30;;
66886;SDS011;53798;51.680;5.976;2022-12-07T15:26:50;3.70;;;1.48;;
66886;SDS011;53798;51.680;5.976;2022-12-07T15:29:19;7.22;;;1.90;;
66886;SDS011;53798;51.680;5.976;2022-12-07T15:31:49;3.63;;;1.60;;
66886;SDS011;53798;51.680;5.976;2022-12-07T15:34:25;7.43;;;2.22;;
66886;SDS011;53798;51.680;5.976;2022-12-07T15:37:05;6.55;;;2.10;;
66886;SDS011;53798;51.680;5.976;2022-12-07T15:39:32;5.03;;;1.80;;
66886;SDS011;53798;51.680;5.976;2022-12-07T15:42:01;7.57;;;2.67;;
66886;SDS011;53798;51.680;5.976;2022-12-07T15:44:28;6.97;;;2.05;;
66886;SDS011;53798;51.680;5.976;2022-12-07T15:47:15;4.43;;;1.88;;
66886;SDS011;53798;51.680;5.976;2022-12-07T15:49:43;6.40;;;2.10;;
66886;SDS011;53798;51.680;5.976;2022-12-07T15:52:10;4.18;;;1.80;;
66886;SDS011;53798;51.680;5.976;2022-12-07T15:54:37;4.75;;;1.67;;
66886;SDS011;53798;51.680;5.976;2022-12-07T15:57:04;5.60;;;2.50;;
66886;SDS011;53798;51.680;5.976;2022-12-07T15:59:31;7.65;;;1.90;;
66886;SDS011;53798;51.680;5.976;2022-12-07T16:01:58;6.07;;;1.60;;
66886;SDS011;53798;51.680;5.976;2022-12-07T16:04:26;6.32;;;1.85;;
66886;SDS011;53798;51.680;5.976;2022-12-07T16:06:56;4.82;;;1.83;;
66886;SDS011;53798;51.680;5.976;2022-12-07T16:09:24;4.63;;;1.60;;
66886;SDS011;53798;51.680;5.976;2022-12-07T16:11:51;3.65;;;1.50;;
66886;SDS011;53798;51.680;5.976;2022-12-07T16:14:19;5.07;;;1.50;;
66886;SDS011;53798;51.680;5.976;2022-12-07T16:16:47;4.20;;;1.73;;
66886;SDS011;53798;51.680;5.976;2022-12-07T16:19:15;5.68;;;2.67;;
66886;SDS011;53798;51.680;5.976;2022-12-07T16:21:42;2.90;;;1.27;;
66886;SDS011;53798;51.680;5.976;2022-12-07T16:24:09;4.93;;;1.60;;
66886;SDS011;53798;51.680;5.976;2022-12-07T16:26:36;3.63;;;1.40;;
66886;SDS011;53798;51.680;5.976;2022-12-07T16:29:03;4.82;;;1.50;;
66886;SDS011;53798;51.680;5.976;2022-12-07T16:31:33;6.30;;;2.20;;
66886;SDS011;53798;51.680;5.976;2022-12-07T16:34:01;4.30;;;2.08;;
66886;SDS011;53798;51.680;5.976;2022-12-07T16:36:34;6.82;;;1.77;;
66886;SDS011;53798;51.680;5.976;2022-12-07T16:39:21;3.38;;;2.08;;
66886;SDS011;53798;51.680;5.976;2022-12-07T16:41:48;4.68;;;2.03;;
66886;SDS011;53798;51.680;5.976;2022-12-07T16:44:15;4.95;;;3.15;;
66886;SDS011;53798;51.680;5.976;2022-12-07T16:46:43;7.63;;;2.65;;
66886;SDS011;53798;51.680;5.976;2022-12-07T16:49:11;3.83;;;1.58;;
66886;SDS011;53798;51.680;5.976;2022-12-07T16:51:50;4.07;;;1.67;;
66886;SDS011;53798;51.680;5.976;2022-12-07T16:54:38;4.65;;;1.40;;
66886;SDS011;53798;51.680;5.976;2022-12-07T16:57:05;4.07;;;1.70;;
66886;SDS011;53798;51.680;5.976;2022-12-07T16:59:32;5.93;;;1.75;;
66886;SDS011;53798;51.680;5.976;2022-12-07T17:01:59;4.22;;;1.77;;
66886;SDS011;53798;51.680;5.976;2022-12-07T17:04:26;4.60;;;1.80;;
66886;SDS011;53798;51.680;5.976;2022-12-07T17:06:54;3.83;;;1.88;;
66886;SDS011;53798;51.680;5.976;2022-12-07T17:09:21;6.38;;;1.88;;
66886;SDS011;53798;51.680;5.976;2022-12-07T17:11:48;4.40;;;2.20;;
66886;SDS011;53798;51.680;5.976;2022-12-07T17:14:15;4.22;;;1.95;;
66886;SDS011;53798;51.680;5.976;2022-12-07T17:17:01;4.57;;;2.38;;
66886;SDS011;53798;51.680;5.976;2022-12-07T17:19:28;4.35;;;2.30;;
66886;SDS011;53798;51.680;5.976;2022-12-07T17:21:55;4.30;;;2.30;;
66886;SDS011;53798;51.680;5.976;2022-12-07T17:24:22;8.50;;;2.78;;
66886;SDS011;53798;51.680;5.976;2022-12-07T17:26:51;7.25;;;2.72;;
66886;SDS011;53798;51.680;5.976;2022-12-07T17:29:18;4.20;;;2.75;;
66886;SDS011;53798;51.680;5.976;2022-12-07T17:31:46;6.18;;;2.90;;